• Join FlightAware (Why Join?)
  • Login
  • US Flag 
04:49AM EDT


 

Airport Tracker/Info


-or-


 

Live Flight TrackerFlight Track Log ✈ N45N ✈ 09-May-2013 ✈ KNUQ - KNUQ

Flight Track Log - Related Links

Times and Time Zones

All times are in EDT time to prevent confusion due to time zone crossing. See the N45N flight status page for this flight to view local times or setup timezone preferences in your user account.

Time Position Orientation Groundspeed Altitude Reporting Facility
EDT Latitude Longitude Course Direction KTS MPH feet Rate Location/Type
11:52AM 37.4333 -122.0500 22° Northeast 128 147 800  Level Northern Cal TRACON
11:53AM 37.4667 -122.0333 22° Northeast 141 162 2,200 1,320 Climbing Northern Cal TRACON
11:54AM 37.5000 -122.0000 38° Northeast 146 168 3,600 1,200 Climbing Northern Cal TRACON
11:55AM 37.5333 -121.9833 22° Northeast 146 168 4,800 660 Climbing Northern Cal TRACON
11:56AM 37.5667 -121.9500 38° Northeast 158 182 5,000 540 Climbing Northern Cal TRACON
11:57AM 37.6000 -121.9167 38° Northeast 158 182 5,900 900 Climbing Northern Cal TRACON
11:58AM 37.6500 -121.8833 28° Northeast 161 185 6,900 480 Climbing Northern Cal TRACON
11:59AM 37.6833 -121.8500 38° Northeast 171 197 7,000 240 Climbing Northern Cal TRACON
12:00PM 37.7167 -121.8167 38° Northeast 170 196 7,400 660 Climbing Northern Cal TRACON
12:01PM 37.7667 -121.7833 28° Northeast 167 192 8,400 900 Climbing Northern Cal TRACON
12:02PM 37.8000 -121.7500 38° Northeast 172 198 9,300 840 Climbing Northern Cal TRACON
12:03PM 37.8500 -121.7500 360° North 179 206 10,100 840 Climbing Northern Cal TRACON
12:04PM 37.8833 -121.7500 360° North 178 205 10,900 840 Climbing Northern Cal TRACON
12:05PM 37.9406 -121.7700 345° North 178 205 11,800 780 Climbing Oakland Center
12:06PM 37.9894 -121.7781 353° North 177 204 12,600 780 Climbing Oakland Center
12:07PM 38.0389 -121.7886 350° North 179 206 13,400 780 Climbing Oakland Center
12:08PM 38.0875 -121.7992 350° North 179 206 14,300 780 Climbing Oakland Center
12:09PM 38.1328 -121.8150 345° North 173 199 15,100 780 Climbing Oakland Center
12:10PM 38.1817 -121.8200 355° North 175 201 15,900 420 Climbing Oakland Center
12:11PM 38.2419 -121.8336 350° North 181 208 16,000  Climbing Oakland Center
12:12PM 38.2928 -121.8450 350° North 186 214 16,000  Level Oakland Center
12:13PM 38.3444 -121.8564 350° North 187 215 16,000  Level Oakland Center
12:14PM 38.3964 -121.8669 351° North 189 217 16,000  Level Oakland Center
12:15PM 38.4475 -121.8789 350° North 188 216 16,000  Level Oakland Center
12:16PM 38.4986 -121.8911 349° North 188 216 16,000  Level Oakland Center
12:17PM 38.5475 -121.9028 349° North 183 211 16,000  Level Oakland Center
12:18PM 38.6039 -121.9158 350° North 174 200 16,000  Level Oakland Center
12:19PM 38.6492 -121.9092 North 165 190 16,000  Level Oakland Center
12:20PM 38.6906 -121.9019 North 161 185 16,000  Level Oakland Center
12:21PM 38.7347 -121.8958 North 160 184 16,000  Level Oakland Center
12:22PM 38.7797 -121.8897 North 161 185 16,000  Level Oakland Center
12:23PM 38.8250 -121.8817 North 163 188 16,000  Level Oakland Center
12:24PM 38.8700 -121.8722 North 163 188 16,000  Level Oakland Center
12:25PM 38.9156 -121.8622 10° North 164 189 16,000  Level Oakland Center
12:26PM 38.9694 -121.8503 10° North 162 186 16,000  Level Oakland Center
12:27PM 39.0125 -121.8336 17° North 161 185 16,000  Level Oakland Center
12:29PM 39.0522 -121.8117 23° Northeast 156 180 16,100  Climbing Oakland Center
12:30PM 39.0978 -121.8056 North 160 184 16,000 -60 Descending Oakland Center
12:31PM 39.1375 -121.7828 24° Northeast 158 182 16,000  Level Oakland Center
12:32PM 39.1803 -121.7700 13° North 156 180 16,000  Level Oakland Center
12:33PM 39.2242 -121.7547 15° North 161 185 16,000  Level Oakland Center
12:34PM 39.2683 -121.7411 13° North 163 188 16,000  Level Oakland Center
12:35PM 39.3125 -121.7269 14° North 162 186 16,000  Level Oakland Center
12:36PM 39.3569 -121.7111 15° North 164 189 16,000  Level Oakland Center
12:37PM 39.4117 -121.6914 16° North 167 192 16,000  Level Oakland Center
12:38PM 39.4586 -121.6903 North 168 193 16,000  Level Oakland Center
12:39PM 39.5058 -121.6886 North 171 197 16,000  Level Oakland Center
12:40PM 39.5528 -121.6853 North 172 198 16,000  Level Oakland Center
12:41PM 39.5992 -121.6803 North 169 194 16,000  Level Oakland Center
12:42PM 39.6453 -121.6736 North 167 192 16,000  Level Oakland Center
12:43PM 39.6908 -121.6608 12° North 167 192 16,000  Level Oakland Center
12:44PM 39.7358 -121.6517 North 164 189 16,000  Level Oakland Center
12:45PM 39.7797 -121.6403 11° North 165 190 16,000  Level Oakland Center
12:46PM 39.8242 -121.6253 15° North 161 185 16,000  Level Oakland Center
12:47PM 39.8775 -121.6133 10° North 161 185 16,000  Level Oakland Center
12:48PM 39.9225 -121.6000 13° North 163 188 16,000  Level Oakland Center
12:49PM 39.9667 -121.5892 11° North 161 185 16,000  Level Oakland Center
12:50PM 40.0108 -121.5753 14° North 160 184 16,000  Level Oakland Center
12:51PM 40.0539 -121.5653 10° North 157 181 16,000  Level Oakland Center
12:52PM 40.0972 -121.5567 North 156 180 16,000  Level Oakland Center
12:53PM 40.1408 -121.5431 13° North 157 181 16,000  Level Oakland Center
12:54PM 40.1833 -121.5364 North 160 184 16,000  Level Oakland Center
12:55PM 40.2303 -121.5308 North 158 182 16,000  Level Oakland Center
12:56PM 40.2769 -121.5314 359° North 162 186 16,000  Level Oakland Center
12:57PM 40.3225 -121.5333 358° North 163 188 16,000 240 Level Oakland Center
12:58PM 40.3742 -121.5311 North 161 185 16,600 480 Climbing Oakland Center
12:59PM 40.4144 -121.5300 North 163 188 17,000 360 Climbing Oakland Center
01:00PM 40.4683 -121.5286 North 169 194 17,400 300 Climbing Oakland Center
01:01PM 40.5156 -121.5269 North 169 194 17,700 300 Climbing Oakland Center
01:02PM 40.5664 -121.5244 North 167 192 18,100 360 Climbing Oakland Center
01:03PM 40.6136 -121.5233 North 169 194 18,500 300 Climbing Oakland Center
01:04PM 40.6614 -121.5211 North 170 196 18,800 120 Climbing Oakland Center
01:05PM 40.7097 -121.5189 North 173 199 18,800  Level Oakland Center
01:06PM 40.7581 -121.5164 North 174 200 18,800  Level Oakland Center
01:07PM 40.8008 -121.5211 355° North 159 183 18,800  Level Oakland Center
01:08PM 40.8475 -121.5217 359° North 164 189 18,800  Level Oakland Center
01:09PM 40.9042 -121.5158 North 165 190 18,800  Level Oakland Center
01:10PM 40.9497 -121.5128 North 164 189 18,800  Level Oakland Center
01:11PM 40.9503 -121.5525 271° West 199 229 18,800  Level Oakland Center
01:12PM 40.9031 -121.5442 172° South 179 206 18,800  Level Oakland Center
01:13PM 40.8514 -121.5464 182° South 180 207 18,800  Level Oakland Center
01:15PM 40.7997 -121.5475 181° South 184 212 18,800  Level Oakland Center
01:16PM 40.7475 -121.5497 182° South 186 214 18,800  Level Oakland Center
01:17PM 40.6967 -121.5472 178° South 185 213 18,800  Level Oakland Center
01:18PM 40.6542 -121.5211 155° Southeast 173 199 18,800  Level Oakland Center
01:19PM 40.6628 -121.5778 281° West 191 220 18,800  Level Oakland Center
01:20PM 40.7158 -121.5600 14° North 170 196 18,800  Level Oakland Center
01:21PM 40.7647 -121.5569 North 172 198 18,800  Level Oakland Center
01:22PM 40.8097 -121.5611 356° North 164 189 18,800  Level Oakland Center
01:23PM 40.8586 -121.5583 North 171 197 18,800  Level Oakland Center
01:24PM 40.9058 -121.5569 North 171 197 18,800 -120 Level Oakland Center
01:25PM 40.9528 -121.5544 North 171 197 18,600 -360 Descending Oakland Center
01:26PM 40.9975 -121.5242 27° Northeast 179 206 18,100 -420 Descending Oakland Center
01:27PM 40.9919 -121.5722 261° West 191 220 17,800 -180 Descending Oakland Center
01:28PM 40.9492 -121.5400 150° Southeast 183 211 17,800  Level Oakland Center
01:29PM 40.8900 -121.5433 182° South 174 200 17,800  Level Oakland Center
01:30PM 40.8381 -121.5456 182° South 178 205 17,800  Level Oakland Center
01:31PM 40.7861 -121.5472 181° South 183 211 17,800  Level Oakland Center
01:32PM 40.7344 -121.5483 181° South 184 212 17,800  Level Oakland Center
01:33PM 40.6847 -121.5436 176° South 183 211 17,900  Climbing Oakland Center
01:34PM 40.6469 -121.5439 180° South 174 200 17,800 -60 Descending Oakland Center
01:35PM 40.6811 -121.5708 329° Northwest 177 204 17,800  Level Oakland Center
01:36PM 40.7281 -121.5583 11° North 174 200 17,800  Level Oakland Center
01:37PM 40.7764 -121.5583 360° North 173 199 17,800  Level Oakland Center
01:38PM 40.8347 -121.5581 360° North 174 200 17,800  Level Oakland Center
01:39PM 40.8831 -121.5575 360° North 174 200 17,800  Level Oakland Center
01:40PM 40.9317 -121.5575 360° North 174 200 17,800  Level Oakland Center
01:41PM 40.9433 -121.6103 286° West 191 220 17,900  Climbing Oakland Center
01:42PM 40.8944 -121.6228 191° South 183 211 17,800 -60 Descending Oakland Center
01:43PM 40.8431 -121.6250 182° South 184 212 17,800  Level Oakland Center
01:44PM 40.7919 -121.6258 181° South 184 212 17,800  Level Oakland Center
01:45PM 40.7400 -121.6272 181° South 185 213 17,800  Level Oakland Center
01:46PM 40.6881 -121.6231 177° South 186 214 17,800  Level Oakland Center
01:47PM 40.6536 -121.5822 138° Southeast 189 217 17,800  Level Oakland Center
01:48PM 40.6783 -121.5231 61° Northeast 179 206 17,800  Level Oakland Center
01:49PM 40.7267 -121.5147 North 177 204 17,800  Level Oakland Center
01:50PM 40.7744 -121.5142 North 176 203 17,800  Level Oakland Center
01:51PM 40.8225 -121.5144 360° North 174 200 17,800  Level Oakland Center
01:52PM 40.8708 -121.5142 360° North 174 200 17,800  Level Oakland Center
01:53PM 40.9194 -121.5136 360° North 173 199 17,800 -60 Level Oakland Center
01:54PM 40.9678 -121.5119 North 173 199 17,700 -300 Descending Oakland Center
01:55PM 41.0078 -121.4853 27° Northeast 182 209 17,300 -360 Descending Oakland Center
01:56PM 40.9572 -121.4586 158° South 189 217 17,000 -240 Descending Oakland Center
01:58PM 40.9067 -121.4500 173° South 187 215 16,900 -60 Descending Oakland Center
01:59PM 40.8597 -121.4417 172° South 180 207 16,900  Level Oakland Center
02:00PM 40.8108 -121.4408 179° South 175 201 17,000  Climbing Oakland Center
02:01PM 40.7583 -121.4439 183° South 179 206 17,000  Level Oakland Center
02:02PM 40.7067 -121.4433 180° South 183 211 17,000  Level Oakland Center
02:03PM 40.6842 -121.5025 243° Southwest 204 235 17,000  Level Oakland Center
02:04PM 40.7289 -121.5181 345° North 186 214 17,000  Level Oakland Center
02:05PM 40.7792 -121.5153 North 181 208 17,000  Level Oakland Center
02:06PM 40.8378 -121.5147 360° North 178 205 17,000  Level Oakland Center
02:07PM 40.8867 -121.5139 North 176 203 17,000  Level Oakland Center
02:08PM 40.9356 -121.5128 North 176 203 17,000  Level Oakland Center
02:09PM 40.9839 -121.5211 353° North 175 201 17,000 -60 Level Oakland Center
02:10PM 40.9489 -121.5494 211° Southwest 191 220 16,900 -60 Descending Oakland Center
02:11PM 40.8989 -121.5414 173° South 183 211 16,900  Level Oakland Center
02:12PM 40.8464 -121.5450 183° South 184 212 16,900  Level Oakland Center
02:13PM 40.7933 -121.5458 181° South 188 216 16,900  Level Oakland Center
02:14PM 40.7406 -121.5483 182° South 188 216 16,900  Level Oakland Center
02:15PM 40.6814 -121.5381 172° South 184 212 17,000  Climbing Oakland Center
02:16PM 40.6700 -121.5722 246° West 185 213 16,900 -60 Descending Oakland Center
02:17PM 40.7164 -121.5592 12° North 175 201 16,900  Level Oakland Center
02:18PM 40.7644 -121.5583 North 175 201 16,900  Level Oakland Center
02:19PM 40.8139 -121.5572 North 176 203 16,900  Level Oakland Center
02:20PM 40.8628 -121.5572 360° North 176 203 16,900  Level Oakland Center
02:21PM 40.9125 -121.5567 360° North 177 204 16,900  Level Oakland Center
02:22PM 40.9617 -121.5592 358° North 177 204 17,000  Climbing Oakland Center
02:23PM 40.9864 -121.6086 304° West 186 214 17,000  Level Oakland Center
02:24PM 40.9317 -121.6158 186° South 186 214 17,000  Level Oakland Center
02:25PM 40.8861 -121.5856 153° Southeast 184 212 17,000  Level Oakland Center
02:26PM 40.8400 -121.5556 154° Southeast 184 212 17,000 120 Level Oakland Center
02:27PM 40.7975 -121.5644 189° South 191 220 17,300 360 Climbing Oakland Center
02:28PM 40.7694 -121.6189 236° Southwest 185 213 17,800 240 Climbing Oakland Center
02:29PM 40.7411 -121.6767 237° Southwest 184 212 17,900  Climbing Oakland Center
02:30PM 40.7108 -121.7444 240° Southwest 196 226 17,900  Level Oakland Center
02:31PM 40.6844 -121.8153 244° Southwest 207 238 17,900 -60 Level Oakland Center
02:32PM 40.6600 -121.8836 245° Southwest 208 239 17,800 -60 Descending Oakland Center
02:33PM 40.6364 -121.9431 242° Southwest 196 226 17,800  Level Oakland Center
02:34PM 40.6111 -122.0142 245° Southwest 183 211 17,800  Level Oakland Center
02:35PM 40.5900 -122.0722 244° Southwest 179 206 17,800  Level Oakland Center
02:36PM 40.5689 -122.1306 245° Southwest 177 204 17,900  Climbing Oakland Center
02:37PM 40.5636 -122.1956 264° West 184 212 17,900  Level Oakland Center
02:38PM 40.5628 -122.2592 269° West 176 203 17,900  Level Oakland Center
02:39PM 40.5633 -122.3247 271° West 177 204 17,900  Level Oakland Center
02:40PM 40.5636 -122.3889 270° West 177 204 17,900  Level Oakland Center
02:42PM 40.5631 -122.4544 269° West 178 205 17,900  Level Oakland Center
02:43PM 40.5644 -122.5347 271° West 182 209 17,900  Level Oakland Center
02:44PM 40.5617 -122.6047 267° West 183 211 17,900  Level Oakland Center
02:45PM 40.5617 -122.6694 270° West 179 206 17,900  Level Oakland Center
02:46PM 40.5597 -122.7347 268° West 179 206 17,900  Level Oakland Center
02:47PM 40.5628 -122.8008 274° West 179 206 17,900  Level Oakland Center
02:48PM 40.5619 -122.8650 269° West 179 206 17,900  Level Oakland Center
02:49PM 40.5614 -122.9308 269° West 179 206 17,900  Level Oakland Center
02:50PM 40.5603 -122.9975 269° West 181 208 17,900  Level Oakland Center
02:51PM 40.5589 -123.0639 268° West 182 209 17,900  Level Oakland Center
02:52PM 40.5456 -123.1225 253° West 211 243 17,900 -60 Level Oakland Center
02:53PM 40.5050 -123.0869 146° Southeast 171 197 17,800  Descending Oakland Center
02:54PM 40.4925 -123.0308 106° East 161 185 17,900  Climbing Oakland Center
02:55PM 40.4906 -122.9714 92° East 161 185 17,900  Level Oakland Center
02:56PM 40.4936 -122.9114 86° East 164 189 17,900  Level Oakland Center
02:57PM 40.4992 -122.8506 83° East 166 191 17,900 -60 Level Oakland Center
02:58PM 40.4986 -122.7892 91° East 167 192 17,800 -60 Descending Oakland Center
02:59PM 40.5044 -122.7286 83° East 169 194 17,800  Level Oakland Center
03:00PM 40.5475 -122.7183 10° North 168 193 17,800  Level Oakland Center
03:01PM 40.5628 -122.7800 288° West 178 205 17,900  Climbing Oakland Center
03:02PM 40.5617 -122.8586 269° West 177 204 17,800 -60 Descending Oakland Center
03:03PM 40.5617 -122.9233 270° West 179 206 17,800  Level Oakland Center
03:04PM 40.5622 -122.9886 271° West 179 206 17,800  Level Oakland Center
03:05PM 40.5611 -123.0553 269° West 182 209 17,800  Level Oakland Center
03:06PM 40.5606 -123.1225 269° West 185 213 17,800 -180 Level Oakland Center
03:07PM 40.5200 -123.1531 210° Southwest 193 222 17,500 -420 Descending Oakland Center
03:08PM 40.4633 -123.1583 184° South 198 228 17,000 -300 Descending Oakland Center
03:09PM 40.4100 -123.1628 184° South 196 226 17,000  Level Oakland Center
03:10PM 40.3583 -123.1631 180° South 190 219 17,000  Level Oakland Center
03:11PM 40.2972 -123.1625 180° South 184 212 17,000  Level Oakland Center
03:12PM 40.2472 -123.1619 180° South 181 208 17,000  Level Oakland Center
03:13PM 40.1969 -123.1619 180° South 181 208 17,000  Level Oakland Center
03:14PM 40.1472 -123.1617 180° South 180 207 17,000  Level Oakland Center
03:15PM 40.0961 -123.1603 179° South 182 209 17,000  Level Oakland Center
03:16PM 40.0453 -123.1617 181° South 182 209 17,000  Level Oakland Center
03:17PM 39.9956 -123.1625 181° South 180 207 17,000  Level Oakland Center
03:18PM 39.9456 -123.1633 181° South 180 207 17,000  Level Oakland Center
03:19PM 39.8947 -123.1644 181° South 182 209 17,000  Level Oakland Center
03:20PM 39.8339 -123.1653 181° South 182 209 17,000  Level Oakland Center
03:21PM 39.7828 -123.1667 181° South 183 211 17,000  Level Oakland Center
03:22PM 39.7308 -123.1636 177° South 186 214 17,100  Climbing Oakland Center
03:23PM 39.6819 -123.1525 170° South 182 209 17,100  Level Oakland Center
03:24PM 39.6319 -123.1408 170° South 183 211 17,100  Level Oakland Center
03:26PM 39.5833 -123.1278 168° South 182 209 17,100  Level Oakland Center
03:27PM 39.5339 -123.1147 168° South 183 211 17,100  Level Oakland Center
03:28PM 39.4847 -123.1025 169° South 182 209 17,100  Level Oakland Center
03:29PM 39.4328 -123.0911 170° South 181 208 17,100  Level Oakland Center
03:30PM 39.3833 -123.0794 170° South 180 207 17,100  Level Oakland Center
03:31PM 39.3233 -123.0672 171° South 182 209 17,100  Level Oakland Center
03:32PM 39.2736 -123.0547 169° South 182 209 17,100  Level Oakland Center
03:33PM 39.2228 -123.0425 169° South 185 213 17,100  Level Oakland Center
03:34PM 39.1728 -123.0306 170° South 183 211 17,100  Level Oakland Center
03:35PM 39.1219 -123.0181 169° South 185 213 17,100  Level Oakland Center
03:36PM 39.0722 -123.0072 170° South 182 209 17,100  Level Oakland Center
03:37PM 39.0225 -122.9944 169° South 183 211 17,100  Level Oakland Center
03:38PM 38.9711 -122.9833 170° South 186 214 17,100  Level Oakland Center
03:39PM 38.9111 -122.9692 170° South 183 211 17,100  Level Oakland Center
03:40PM 38.8600 -122.9581 170° South 185 213 17,100  Level Oakland Center
03:41PM 38.8100 -122.9467 170° South 185 213 17,100  Level Oakland Center
03:42PM 38.7597 -122.9356 170° South 184 212 17,100  Level Oakland Center
03:43PM 38.7092 -122.9247 171° South 185 213 17,100  Level Oakland Center
03:44PM 38.6583 -122.9144 171° South 185 213 17,100 -300 Level Oakland Center
03:45PM 38.6069 -122.9072 174° South 188 216 16,600 -600 Descending Oakland Center
03:46PM 38.5525 -122.9067 180° South 195 224 15,900 -840 Descending Oakland Center
03:47PM 38.4892 -122.9086 181° South 190 219 14,900 -1,140 Descending Oakland Center
03:48PM 38.4389 -122.9106 182° South 183 211 13,600 -1,260 Descending Oakland Center
03:49PM 38.3875 -122.9125 182° South 183 211 12,400 -1,200 Descending Oakland Center
03:50PM 38.3375 -122.9108 179° South 181 208 11,200 -1,200 Descending Oakland Center
03:51PM 38.2886 -122.9097 179° South 180 207 10,000 -1,080 Descending Oakland Center
03:52PM 38.2392 -122.9094 180° South 179 206 9,000 -540 Descending Oakland Center
03:53PM 38.1917 -122.9075 178° South 175 201 9,000  Level Oakland Center
03:54PM 38.1364 -122.8975 172° South 171 197 9,000  Level Oakland Center
03:55PM 38.0917 -122.8856 168° South 167 192 9,000  Level Oakland Center
03:56PM 38.0508 -122.8614 155° Southeast 164 189 9,000  Level Oakland Center
03:57PM 38.0078 -122.8381 157° South 167 192 9,000  Level Oakland Center
03:58PM 37.9653 -122.8158 158° South 166 191 9,000  Level Oakland Center
03:59PM 37.9233 -122.7922 156° South 167 192 9,000 -180 Level Oakland Center
04:00PM 37.8856 -122.7442 135° Southeast 163 188 8,700 -360 Descending Oakland Center
04:01PM 37.8536 -122.6975 131° Southeast 175 201 8,300 -420 Descending Oakland Center
04:02PM 37.8247 -122.6514 128° Southeast 171 197 7,900 -420 Descending Oakland Center
04:04PM 37.7833 -122.6167 146° Southeast 170 196 7,500 -360 Descending Northern Cal TRACON
04:05PM 37.7500 -122.5833 142° Southeast 164 189 7,200 -420 Descending Northern Cal TRACON
04:05PM 37.7167 -122.5500 142° Southeast 167 192 6,700 -660 Descending Northern Cal TRACON
04:06PM 37.6667 -122.5167 152° Southeast 172 198 6,000 -780 Descending Northern Cal TRACON
04:07PM 37.6333 -122.4833 142° Southeast 172 198 5,300 -480 Descending Northern Cal TRACON
04:08PM 37.6000 -122.4500 142° Southeast 166 191 5,100 -180 Descending Northern Cal TRACON
04:09PM 37.5897 -122.4394 141° Southeast 167 192 5,100  Level Oakland Center
04:10PM 37.5503 -122.4103 150° Southeast 164 189 5,100  Level Oakland Center
04:11PM 37.5111 -122.3819 150° Southeast 164 189 5,100  Level Oakland Center
04:12PM 37.4719 -122.3525 149° Southeast 164 189 5,100  Level Oakland Center
04:13PM 37.4333 -122.3208 147° Southeast 165 190 5,100 -60 Level Oakland Center
04:14PM 37.3983 -122.2831 139° Southeast 166 191 5,000 -60 Descending Oakland Center
04:15PM 37.3672 -122.2278 125° Southeast 163 188 5,000  Level Oakland Center
04:16PM 37.3394 -122.1822 127° Southeast 164 189 5,000 -240 Level Oakland Center
04:17PM 37.3219 -122.1308 113° Southeast 162 186 4,600 -780 Descending Oakland Center
04:18PM 37.3208 -122.0750 91° East 163 188 3,500 -1,380 Descending Oakland Center
04:19PM 37.3328 -122.0231 74° East 161 185 1,800 -1,320 Descending Oakland Center
04:20PM 37.3675 -122.0183 North 144 166 900 -900 Descending Oakland Center
04:20PM 37.3833 -122.0333 323° Northwest 120 138 500 -900 Descending Northern Cal TRACON
04:23PM 37.4000 -122.0333 North  Level FlightAware Approximate